createdAt,value
2022-10-26T00:05:24.850Z,993
2022-10-26T00:11:24.884Z,993
2022-10-26T00:17:24.872Z,993
2022-10-26T00:23:24.879Z,993
2022-10-26T00:29:24.877Z,992
2022-10-26T00:35:41.362Z,992
2022-10-26T00:41:24.868Z,993
2022-10-26T00:47:24.886Z,993
2022-10-26T00:53:24.871Z,993
2022-10-26T00:59:24.863Z,993
2022-10-26T01:05:24.896Z,993
2022-10-26T01:11:24.856Z,993
2022-10-26T01:17:24.867Z,993
2022-10-26T01:23:24.899Z,992
2022-10-26T01:29:24.881Z,992
2022-10-26T01:35:24.870Z,992
2022-10-26T01:41:24.922Z,992
2022-10-26T01:47:24.879Z,992
2022-10-26T01:53:24.892Z,992
2022-10-26T01:59:24.887Z,992
2022-10-26T02:05:24.887Z,992
2022-10-26T02:11:24.871Z,992
2022-10-26T02:17:24.919Z,992
2022-10-26T02:23:24.869Z,992
2022-10-26T02:29:24.866Z,992
2022-10-26T02:35:24.908Z,992
2022-10-26T02:41:24.898Z,992
2022-10-26T02:47:24.874Z,992
2022-10-26T02:53:24.906Z,992
2022-10-26T02:59:24.880Z,992
2022-10-26T03:05:24.858Z,992
2022-10-26T03:11:24.888Z,992
2022-10-26T03:17:24.881Z,992
2022-10-26T03:23:24.861Z,992
2022-10-26T03:29:24.919Z,992
2022-10-26T03:35:24.993Z,992
2022-10-26T03:41:24.871Z,992
2022-10-26T03:47:24.911Z,992
2022-10-26T03:53:24.853Z,992
2022-10-26T03:59:24.876Z,992
2022-10-26T04:05:24.880Z,992
2022-10-26T04:11:24.907Z,992
2022-10-26T04:17:24.873Z,992
2022-10-26T04:29:24.916Z,992
2022-10-26T04:35:24.887Z,992
2022-10-26T04:41:24.925Z,992
2022-10-26T04:47:24.924Z,992
2022-10-26T04:53:24.919Z,992
2022-10-26T04:59:24.926Z,992
2022-10-26T05:05:24.871Z,992
2022-10-26T05:11:24.882Z,992
2022-10-26T05:17:24.916Z,992
2022-10-26T05:23:24.866Z,992
2022-10-26T05:29:24.884Z,992
2022-10-26T05:35:24.910Z,992
2022-10-26T05:41:24.890Z,992
2022-10-26T05:47:24.879Z,992
2022-10-26T05:53:24.920Z,992
2022-10-26T05:59:24.906Z,992
2022-10-26T06:05:24.885Z,992
2022-10-26T06:11:24.999Z,992
2022-10-26T06:17:24.877Z,992
2022-10-26T06:23:24.882Z,992
2022-10-26T06:29:24.897Z,992
2022-10-26T06:35:24.900Z,992
2022-10-26T06:41:24.905Z,992
2022-10-26T06:47:24.925Z,992
2022-10-26T06:53:24.871Z,992
2022-10-26T06:59:24.913Z,992
2022-10-26T07:05:24.944Z,992
2022-10-26T07:11:24.913Z,993
2022-10-26T07:17:24.900Z,993
2022-10-26T07:23:25.001Z,993
2022-10-26T07:29:24.889Z,993
2022-10-26T07:35:24.895Z,993
2022-10-26T07:41:24.940Z,993
2022-10-26T07:47:24.902Z,993
2022-10-26T07:53:27.783Z,993
2022-10-26T07:59:24.930Z,993
2022-10-26T08:05:24.956Z,993
2022-10-26T08:11:24.883Z,993
2022-10-26T08:17:24.922Z,993
2022-10-26T08:23:24.902Z,993
2022-10-26T08:29:24.895Z,993
2022-10-26T08:35:24.924Z,993
2022-10-26T08:41:24.889Z,993
2022-10-26T08:47:24.956Z,993
2022-10-26T08:53:24.904Z,993
2022-10-26T08:59:24.895Z,993
2022-10-26T09:05:24.906Z,993
2022-10-26T09:11:24.915Z,993
2022-10-26T09:17:24.909Z,993
2022-10-26T09:23:24.912Z,993
2022-10-26T09:29:24.941Z,993
2022-10-26T09:35:25.008Z,993
2022-10-26T09:41:27.091Z,993
2022-10-26T09:47:24.923Z,993
2022-10-26T09:53:24.941Z,993
2022-10-26T09:59:24.927Z,994
2022-10-26T10:05:39.135Z,994
2022-10-26T10:11:24.933Z,994
2022-10-26T10:17:24.932Z,994
2022-10-26T10:23:24.945Z,994
2022-10-26T10:29:24.941Z,994
2022-10-26T10:35:24.935Z,994
2022-10-26T10:41:24.981Z,994
2022-10-26T10:47:24.907Z,994
2022-10-26T10:53:24.925Z,994
2022-10-26T10:59:24.953Z,994
2022-10-26T11:05:27.350Z,994
2022-10-26T11:11:24.910Z,994
2022-10-26T11:17:24.966Z,994
2022-10-26T11:23:24.922Z,994
2022-10-26T11:29:24.950Z,995
2022-10-26T11:35:24.961Z,995
2022-10-26T11:41:24.931Z,995
2022-10-26T11:47:24.935Z,995
2022-10-26T11:53:24.959Z,995
2022-10-26T11:59:26.927Z,995
2022-10-26T12:05:24.926Z,995
2022-10-26T12:11:25.043Z,995
2022-10-26T12:17:24.947Z,995
2022-10-26T12:23:40.366Z,995
2022-10-26T12:29:24.999Z,995
2022-10-26T12:35:24.930Z,995
2022-10-26T12:41:25.001Z,995
2022-10-26T12:47:24.981Z,995
2022-10-26T12:53:24.960Z,995
2022-10-26T12:59:24.939Z,995
2022-10-26T13:05:25.091Z,995
2022-10-26T13:11:24.998Z,995
2022-10-26T13:17:25.057Z,995
2022-10-26T13:23:25.024Z,995
2022-10-26T13:29:24.949Z,995
2022-10-26T13:35:24.969Z,995
2022-10-26T13:41:24.977Z,995
2022-10-26T13:47:24.987Z,995
2022-10-26T13:53:24.973Z,995
2022-10-26T13:59:25.016Z,995
2022-10-26T14:05:24.965Z,995
2022-10-26T14:11:24.977Z,995
2022-10-26T14:17:24.992Z,996
2022-10-26T14:23:24.999Z,996
2022-10-26T14:29:24.979Z,996
2022-10-26T14:35:25.037Z,996
2022-10-26T14:41:25.060Z,996
2022-10-26T14:47:24.971Z,996
2022-10-26T14:53:25.010Z,996
2022-10-26T14:59:24.988Z,996
2022-10-26T15:05:25.012Z,996
2022-10-26T15:11:25.008Z,996
2022-10-26T15:17:25.003Z,996
2022-10-26T15:23:25.056Z,996
2022-10-26T15:29:25.027Z,996
2022-10-26T15:35:24.997Z,996
2022-10-26T15:41:25.029Z,996
2022-10-26T15:47:25.031Z,996
2022-10-26T15:53:25.006Z,996
2022-10-26T15:59:24.999Z,996
2022-10-26T16:05:25.077Z,996
2022-10-26T16:11:25.049Z,996
2022-10-26T16:17:24.988Z,997
2022-10-26T16:23:25.126Z,997
2022-10-26T16:29:25.007Z,997
2022-10-26T16:35:24.997Z,997
2022-10-26T16:47:25.114Z,997
2022-10-26T16:53:24.997Z,997
2022-10-26T16:59:25.040Z,997
2022-10-26T17:05:25.007Z,997
2022-10-26T17:11:25.047Z,997
2022-10-26T17:17:25.056Z,997
2022-10-26T17:23:24.997Z,998
2022-10-26T17:29:25.019Z,998
2022-10-26T17:35:25.061Z,998
2022-10-26T17:41:25.063Z,998
2022-10-26T17:47:25.010Z,998
2022-10-26T17:53:25.052Z,998
2022-10-26T17:59:25.034Z,998
2022-10-26T18:05:25.014Z,998
2022-10-26T18:11:27.232Z,999
2022-10-26T18:17:24.994Z,999
2022-10-26T18:23:24.999Z,999
2022-10-26T18:29:25.028Z,999
2022-10-26T18:35:25.001Z,999
2022-10-26T18:41:25.110Z,999
2022-10-26T18:47:25.058Z,999
2022-10-26T18:53:25.045Z,999
2022-10-26T18:59:24.997Z,999
2022-10-26T19:05:25.044Z,999
2022-10-26T19:11:25.007Z,999
2022-10-26T19:17:25.019Z,999
2022-10-26T19:23:25.082Z,999
2022-10-26T19:29:25.022Z,999
2022-10-26T19:35:25.078Z,999
2022-10-26T19:41:25.082Z,1000
2022-10-26T19:47:25.017Z,1000
2022-10-26T19:53:25.037Z,1000
2022-10-26T19:59:25.101Z,1000
2022-10-26T20:05:25.036Z,1000
2022-10-26T20:11:25.050Z,1000
2022-10-26T20:17:28.322Z,1000
2022-10-26T20:23:25.038Z,1000
2022-10-26T20:29:25.049Z,1000
2022-10-26T20:35:25.089Z,1000
2022-10-26T20:41:25.037Z,1000
2022-10-26T20:47:25.044Z,1000
2022-10-26T20:53:25.076Z,1000
2022-10-26T20:59:25.137Z,1000
2022-10-26T21:05:25.046Z,1000
2022-10-26T21:11:25.066Z,1000
2022-10-26T21:17:25.286Z,1000
2022-10-26T21:23:25.067Z,1000
2022-10-26T21:29:25.096Z,1000
2022-10-26T21:35:25.027Z,1000
2022-10-26T21:47:25.066Z,1000
2022-10-26T21:53:25.053Z,1000
2022-10-26T21:59:25.051Z,1000
2022-10-26T22:05:25.046Z,1000
2022-10-26T22:11:25.057Z,1000
2022-10-26T22:17:25.058Z,1000
2022-10-26T22:23:25.066Z,1000
2022-10-26T22:29:25.053Z,1000
2022-10-26T22:35:29.421Z,1000
2022-10-26T22:41:25.108Z,1000
2022-10-26T22:47:25.054Z,1000
2022-10-26T22:53:25.059Z,1000
2022-10-26T22:59:25.073Z,1000
2022-10-26T23:05:25.053Z,1000
2022-10-26T23:11:25.086Z,1001
2022-10-26T23:17:25.068Z,1001
2022-10-26T23:23:25.073Z,1001
2022-10-26T23:29:25.073Z,1001
2022-10-26T23:35:25.092Z,1001
2022-10-26T23:41:25.058Z,1001
2022-10-26T23:47:25.073Z,1001
2022-10-26T23:53:25.088Z,1001
2022-10-26T23:59:25.088Z,1001
